Time;durP1;ratioP1;P1;durP2;ratioP2;P2;SDS_P1;SDS_P2;PMS_P1;PMS_P2;Temp;Humidity;BMP_temperature;BMP_pressure;BME280_temperature;BME280_humidity;BME280_pressure;Samples;Min_cycle;Max_cycle;Signal;HPM_P1;HPM_P2
2023/01/22 00:00:29;;;;;;;21.45;13.73;;;-0.20;99.90;;;;;;5063593;28;20098;-58
2023/01/22 00:02:57;;;;;;;22.27;13.88;;;-0.10;99.90;;;;;;5060567;28;20099;-55
2023/01/22 00:05:24;;;;;;;23.95;14.15;;;-0.10;99.90;;;;;;5057485;28;20389;-55
2023/01/22 00:07:50;;;;;;;22.48;14.07;;;-0.10;99.90;;;;;;5055765;28;20092;-58
2023/01/22 00:10:17;;;;;;;23.08;12.95;;;-0.10;99.90;;;;;;5069691;28;20092;-57
2023/01/22 00:12:44;;;;;;;22.80;13.32;;;0.00;99.90;;;;;;5069921;28;20440;-57
2023/01/22 00:15:11;;;;;;;20.95;13.73;;;0.00;99.90;;;;;;5066088;28;20048;-57
2023/01/22 00:17:38;;;;;;;23.90;13.07;;;0.00;99.90;;;;;;5058681;28;20452;-59
2023/01/22 00:20:07;;;;;;;27.27;13.95;;;0.00;99.90;;;;;;5066640;28;20110;-56
2023/01/22 00:22:34;;;;;;;25.92;14.45;;;0.00;99.90;;;;;;5070336;28;20048;-55
2023/01/22 00:25:01;;;;;;;25.42;14.20;;;0.00;99.90;;;;;;5071334;28;20059;-57
2023/01/22 00:27:28;;;;;;;22.02;13.27;;;0.00;99.90;;;;;;5058973;28;20049;-55
2023/01/22 00:29:54;;;;;;;30.33;14.05;;;0.00;99.90;;;;;;5067417;28;20125;-58
2023/01/22 00:32:21;;;;;;;26.10;13.82;;;0.00;99.90;;;;;;5073639;28;20091;-57
2023/01/22 00:34:51;;;;;;;28.83;14.40;;;0.00;99.90;;;;;;5069313;28;20381;-55
2023/01/22 00:37:19;;;;;;;26.70;14.57;;;0.10;99.90;;;;;;5067049;28;20132;-54
2023/01/22 00:39:46;;;;;;;27.08;14.50;;;0.00;99.90;;;;;;5054731;28;20064;-58
2023/01/22 00:42:13;;;;;;;24.83;14.52;;;0.00;99.90;;;;;;5071410;28;20496;-58
2023/01/22 00:44:40;;;;;;;27.13;15.18;;;0.00;99.90;;;;;;5064996;28;20076;-59
2023/01/22 00:47:07;;;;;;;28.38;16.40;;;0.00;99.90;;;;;;5065061;28;20110;-56
2023/01/22 00:49:33;;;;;;;28.27;16.67;;;0.10;99.90;;;;;;5053856;28;20110;-54
2023/01/22 00:52:00;;;;;;;26.30;15.93;;;0.10;99.90;;;;;;5058301;28;20095;-58
2023/01/22 00:54:29;;;;;;;33.90;16.73;;;0.20;99.90;;;;;;5069881;28;20127;-57
2023/01/22 00:56:56;;;;;;;28.48;16.80;;;0.20;99.90;;;;;;5071969;28;20407;-59
2023/01/22 00:59:22;;;;;;;32.60;18.08;;;0.10;99.90;;;;;;5066637;28;20072;-53
2023/01/22 01:01:49;;;;;;;34.78;18.77;;;0.20;99.90;;;;;;5062017;28;20052;-59
2023/01/22 01:04:16;;;;;;;32.78;18.17;;;0.20;99.90;;;;;;5055101;28;20053;-57
2023/01/22 01:06:43;;;;;;;32.22;18.88;;;0.20;99.90;;;;;;5058353;28;20083;-60
2023/01/22 01:09:10;;;;;;;37.30;18.48;;;0.10;99.90;;;;;;5068714;28;20397;-58
2023/01/22 01:11:38;;;;;;;33.20;19.65;;;0.10;99.90;;;;;;5067856;28;20045;-57
2023/01/22 01:14:04;;;;;;;36.30;20.48;;;0.10;99.90;;;;;;5060303;28;20565;-59
2023/01/22 01:16:32;;;;;;;35.78;20.90;;;0.10;99.90;;;;;;5054306;28;20049;-58
2023/01/22 01:18:59;;;;;;;37.22;21.23;;;0.00;99.90;;;;;;5055634;28;20053;-59
2023/01/22 01:21:25;;;;;;;36.67;21.05;;;0.00;99.90;;;;;;5071543;28;20048;-61
2023/01/22 01:23:54;;;;;;;38.55;20.50;;;0.00;99.90;;;;;;5059712;28;20098;-57
2023/01/22 01:26:20;;;;;;;33.83;20.40;;;0.00;99.90;;;;;;5072810;28;20076;-58
2023/01/22 01:28:51;;;;;;;40.67;22.73;;;-0.10;99.90;;;;;;5073944;28;20133;-57
2023/01/22 01:31:18;;;;;;;36.13;21.40;;;0.00;99.90;;;;;;5061838;28;20564;-46
2023/01/22 01:33:45;;;;;;;43.20;21.27;;;-0.10;99.90;;;;;;5080175;28;20088;-57
2023/01/22 01:36:13;;;;;;;36.97;20.77;;;-0.10;99.90;;;;;;5066888;28;20083;-59
2023/01/22 01:38:39;;;;;;;35.92;19.40;;;-0.10;99.90;;;;;;5057415;28;20090;-59
2023/01/22 01:41:06;;;;;;;35.40;20.50;;;-0.20;99.90;;;;;;5066905;28;20504;-56
2023/01/22 01:43:33;;;;;;;33.33;20.13;;;-0.20;99.90;;;;;;5069596;28;20087;-57
2023/01/22 01:46:02;;;;;;;38.88;19.15;;;-0.20;99.90;;;;;;5064130;28;20393;-56
2023/01/22 01:48:30;;;;;;;38.70;21.10;;;-0.20;99.90;;;;;;5056956;28;20053;-56
2023/01/22 01:51:00;;;;;;;37.38;20.13;;;-0.20;99.90;;;;;;5065358;28;20052;-56
2023/01/22 01:53:26;;;;;;;36.60;20.75;;;-0.30;99.90;;;;;;5058276;28;20059;-52
2023/01/22 01:55:54;;;;;;;32.58;19.08;;;-0.30;99.90;;;;;;5054580;28;20045;-58
2023/01/22 01:58:21;;;;;;;37.08;20.05;;;-0.30;99.90;;;;;;5064172;28;20127;-57
2023/01/22 02:00:48;;;;;;;34.45;19.58;;;-0.30;99.90;;;;;;5066991;28;20056;-60
2023/01/22 02:03:16;;;;;;;33.75;18.73;;;-0.40;99.90;;;;;;5058517;28;20120;-57
2023/01/22 02:05:43;;;;;;;38.13;20.08;;;-0.40;99.90;;;;;;5059596;28;20088;-58
2023/01/22 02:08:10;;;;;;;34.65;19.83;;;-0.40;99.90;;;;;;5066070;28;20037;-58
2023/01/22 02:10:37;;;;;;;33.42;19.13;;;-0.40;99.90;;;;;;5070562;28;20484;-57
2023/01/22 02:13:06;;;;;;;32.83;19.73;;;-0.40;99.90;;;;;;5054619;28;20061;-59
2023/01/22 02:15:33;;;;;;;38.08;19.98;;;-0.40;99.90;;;;;;5053091;28;20095;-58
2023/01/22 02:18:00;;;;;;;31.27;19.15;;;-0.50;99.90;;;;;;5055554;28;20049;-51
2023/01/22 02:20:28;;;;;;;34.03;19.30;;;-0.50;99.90;;;;;;5055517;28;20048;-51
2023/01/22 02:22:56;;;;;;;34.28;19.17;;;-0.30;99.90;;;;;;5072586;28;20098;-57
2023/01/22 02:25:23;;;;;;;35.00;19.20;;;-0.40;99.90;;;;;;5072416;28;20084;-57
2023/01/22 02:27:50;;;;;;;35.97;19.70;;;-0.40;99.90;;;;;;5064600;28;20081;-57
2023/01/22 02:30:17;;;;;;;33.33;18.92;;;-0.30;99.90;;;;;;5061171;28;20111;-58
2023/01/22 02:32:44;;;;;;;33.00;18.30;;;-0.30;99.90;;;;;;5059339;28;20081;-58
2023/01/22 02:35:11;;;;;;;31.58;18.33;;;-0.30;99.90;;;;;;5056150;28;20097;-58
2023/01/22 02:37:37;;;;;;;30.25;17.95;;;-0.30;99.90;;;;;;5072453;28;20084;-54
2023/01/22 02:40:07;;;;;;;28.90;17.13;;;-0.30;99.90;;;;;;5063463;28;20145;-59
2023/01/22 02:42:33;;;;;;;33.63;19.02;;;-0.20;99.90;;;;;;5066277;28;20083;-58
2023/01/22 02:45:00;;;;;;;31.98;18.23;;;-0.20;99.90;;;;;;5063437;28;20089;-58
2023/01/22 02:47:27;;;;;;;31.10;17.33;;;-0.20;99.90;;;;;;5053349;28;20056;-57
2023/01/22 02:49:54;;;;;;;30.08;16.38;;;-0.10;99.90;;;;;;5063587;28;20092;-56
2023/01/22 02:52:21;;;;;;;35.92;15.45;;;-0.10;99.90;;;;;;5070140;28;20049;-54
2023/01/22 02:54:47;;;;;;;29.10;15.90;;;0.00;99.90;;;;;;5058495;28;20048;-59
2023/01/22 02:57:16;;;;;;;21.05;13.38;;;0.10;99.90;;;;;;5059971;28;20462;-57
2023/01/22 02:59:42;;;;;;;26.65;15.02;;;0.20;99.90;;;;;;5062618;28;20084;-58
2023/01/22 03:02:09;;;;;;;26.20;14.25;;;0.20;99.90;;;;;;5053152;28;20048;-59
2023/01/22 03:04:36;;;;;;;24.42;13.85;;;0.20;99.90;;;;;;5062303;28;20045;-58
2023/01/22 03:07:03;;;;;;;18.55;12.13;;;0.40;99.90;;;;;;5058967;28;20128;-55
2023/01/22 03:09:30;;;;;;;21.00;12.40;;;0.40;99.90;;;;;;5055630;28;20131;-57
2023/01/22 03:11:56;;;;;;;20.90;12.10;;;0.40;99.90;;;;;;5064476;28;20076;-57
2023/01/22 03:22:37;;;;;;;19.65;11.40;;;0.60;99.90;;;;;;5053508;28;20049;-57
2023/01/22 03:25:04;;;;;;;18.05;10.88;;;0.60;99.90;;;;;;5051631;28;20091;-57
2023/01/22 03:27:31;;;;;;;19.42;11.55;;;0.50;99.90;;;;;;5061114;28;20076;-58
2023/01/22 03:29:59;;;;;;;18.20;10.50;;;0.60;99.90;;;;;;5061871;28;20084;-57
2023/01/22 03:32:26;;;;;;;19.40;11.38;;;0.60;99.90;;;;;;5072350;28;20360;-56
2023/01/22 03:34:53;;;;;;;17.70;11.32;;;0.50;99.90;;;;;;5071445;28;20450;-58
2023/01/22 03:37:20;;;;;;;18.48;11.10;;;0.60;99.90;;;;;;5058329;28;20496;-58
2023/01/22 03:39:47;;;;;;;16.17;11.20;;;0.60;99.90;;;;;;5053194;28;20052;-58
2023/01/22 03:42:13;;;;;;;19.92;11.07;;;0.60;99.90;;;;;;5079314;28;20128;-57
2023/01/22 03:44:40;;;;;;;18.52;10.98;;;0.60;99.90;;;;;;5061356;28;20119;-54
2023/01/22 03:47:08;;;;;;;15.77;9.88;;;0.60;99.90;;;;;;5052983;28;20080;-56
2023/01/22 03:49:35;;;;;;;19.02;9.57;;;0.70;99.90;;;;;;5062741;28;20408;-57
2023/01/22 03:52:02;;;;;;;18.38;9.35;;;0.70;99.90;;;;;;5056448;28;20053;-58
2023/01/22 03:54:29;;;;;;;17.38;10.45;;;0.70;99.90;;;;;;5068200;28;20080;-59
2023/01/22 03:56:55;;;;;;;12.05;8.85;;;0.80;99.90;;;;;;5078928;28;20056;-57
2023/01/22 03:59:22;;;;;;;17.48;9.55;;;0.70;99.90;;;;;;5071710;28;20488;-57
2023/01/22 04:01:49;;;;;;;13.93;9.00;;;0.70;99.90;;;;;;5068729;28;20056;-56
2023/01/22 04:04:17;;;;;;;14.70;8.73;;;0.80;99.90;;;;;;5054534;28;20503;-57
2023/01/22 04:06:44;;;;;;;17.00;9.10;;;0.70;99.90;;;;;;5062355;28;20075;-57
2023/01/22 04:09:11;;;;;;;13.00;8.70;;;0.70;99.90;;;;;;5069589;28;20056;-57
2023/01/22 04:11:38;;;;;;;11.52;8.52;;;0.80;99.90;;;;;;5072297;28;20435;-56
2023/01/22 04:14:05;;;;;;;13.98;9.23;;;0.80;99.90;;;;;;5070048;28;20110;-58
2023/01/22 04:16:31;;;;;;;10.52;7.47;;;0.80;99.90;;;;;;5069458;28;20087;-55
2023/01/22 04:18:58;;;;;;;14.15;8.85;;;0.80;99.90;;;;;;5052451;28;20084;-58
2023/01/22 04:21:26;;;;;;;13.95;8.35;;;0.90;99.90;;;;;;5052570;28;20084;-56
2023/01/22 04:23:53;;;;;;;14.25;8.50;;;0.80;99.90;;;;;;5066996;28;20116;-55
2023/01/22 04:26:20;;;;;;;12.85;8.02;;;0.80;99.90;;;;;;5064398;28;20055;-56
2023/01/22 04:28:47;;;;;;;11.35;8.48;;;0.80;99.90;;;;;;5065835;28;20040;-55
2023/01/22 04:31:13;;;;;;;14.25;8.43;;;0.80;99.90;;;;;;5054442;28;20040;-58
2023/01/22 04:33:40;;;;;;;12.68;7.97;;;0.80;99.90;;;;;;5052895;28;20136;-57
2023/01/22 04:36:08;;;;;;;11.50;6.88;;;0.90;99.90;;;;;;5064873;28;20084;-57
2023/01/22 04:38:36;;;;;;;13.90;8.18;;;0.80;99.90;;;;;;5063563;28;20051;-55
2023/01/22 04:41:03;;;;;;;16.23;7.75;;;0.90;99.90;;;;;;5061689;28;20049;-57
2023/01/22 04:43:30;;;;;;;14.48;8.02;;;0.80;99.90;;;;;;5073156;28;20131;-56
2023/01/22 04:45:56;;;;;;;14.88;8.27;;;0.90;99.90;;;;;;5072391;28;20080;-57
2023/01/22 04:48:23;;;;;;;14.85;8.32;;;0.80;99.90;;;;;;5074650;28;20402;-56
2023/01/22 04:50:50;;;;;;;12.98;7.78;;;0.90;99.90;;;;;;5067193;28;20114;-57
2023/01/22 04:53:17;;;;;;;13.05;8.07;;;0.90;99.90;;;;;;5071404;28;20127;-57
2023/01/22 04:55:48;;;;;;;13.55;8.52;;;0.90;99.90;;;;;;5074967;28;20450;-57
2023/01/22 04:58:15;;;;;;;10.68;7.38;;;0.90;99.90;;;;;;5067729;28;20048;-58
2023/01/22 05:00:41;;;;;;;13.68;7.35;;;0.90;99.90;;;;;;5068567;28;20048;-58
2023/01/22 05:03:09;;;;;;;12.13;7.75;;;0.90;99.90;;;;;;5090561;28;20579;-55
2023/01/22 05:05:36;;;;;;;11.57;7.65;;;0.90;99.90;;;;;;5061863;28;20045;-56
2023/01/22 05:08:03;;;;;;;12.68;7.43;;;1.00;99.90;;;;;;5060700;28;20377;-55
2023/01/22 05:10:30;;;;;;;14.15;7.63;;;0.90;99.90;;;;;;5068425;28;20099;-57
2023/01/22 05:12:59;;;;;;;15.40;8.00;;;0.90;99.90;;;;;;5074198;28;20521;-56
2023/01/22 05:15:26;;;;;;;10.85;7.57;;;1.00;99.90;;;;;;5058468;28;20566;-55
2023/01/22 05:17:53;;;;;;;11.23;7.88;;;0.90;99.90;;;;;;5056902;28;20102;-53
2023/01/22 05:20:20;;;;;;;15.48;8.50;;;0.90;99.90;;;;;;5053984;28;20080;-55
2023/01/22 05:22:46;;;;;;;12.85;7.93;;;1.00;99.90;;;;;;5061269;28;20071;-55
2023/01/22 05:25:13;;;;;;;11.40;8.15;;;0.90;99.90;;;;;;5063465;28;20076;-57
2023/01/22 05:27:40;;;;;;;11.82;7.63;;;0.90;99.90;;;;;;5076134;28;20148;-51
2023/01/22 05:30:10;;;;;;;12.27;8.02;;;0.90;99.90;;;;;;5072313;28;20072;-57
2023/01/22 05:32:36;;;;;;;14.65;8.57;;;0.90;99.90;;;;;;5062241;28;20084;-56
2023/01/22 05:35:04;;;;;;;14.50;9.00;;;0.90;99.90;;;;;;5073732;28;20145;-56
2023/01/22 05:37:31;;;;;;;16.20;8.15;;;0.90;99.90;;;;;;5070247;28;20052;-59
2023/01/22 05:39:58;;;;;;;12.32;7.45;;;0.90;99.90;;;;;;5070997;28;20061;-57
2023/01/22 05:42:25;;;;;;;10.27;7.70;;;0.90;99.90;;;;;;5073866;28;20128;-56
2023/01/22 05:44:51;;;;;;;12.65;7.68;;;0.90;99.90;;;;;;5071286;28;20053;-55
2023/01/22 05:47:19;;;;;;;10.65;7.45;;;0.90;99.90;;;;;;5077697;28;20480;-56
2023/01/22 05:49:46;;;;;;;12.85;7.70;;;1.00;99.90;;;;;;5072266;28;20131;-56
2023/01/22 05:52:13;;;;;;;13.45;8.18;;;0.90;99.90;;;;;;5067302;28;20095;-57
2023/01/22 05:54:40;;;;;;;15.35;8.90;;;0.90;99.90;;;;;;5062955;28;20531;-57
2023/01/22 05:57:07;;;;;;;13.35;7.88;;;0.80;99.90;;;;;;5070553;28;20075;-52
2023/01/22 05:59:34;;;;;;;14.68;8.15;;;0.80;99.90;;;;;;5056726;28;20049;-56
2023/01/22 06:02:00;;;;;;;12.45;7.28;;;0.80;99.90;;;;;;5056103;28;20060;-57
2023/01/22 06:04:29;;;;;;;11.82;8.45;;;0.80;99.90;;;;;;5072113;28;20040;-56
2023/01/22 06:06:55;;;;;;;13.88;7.88;;;0.80;99.90;;;;;;5070275;28;20096;-44
2023/01/22 06:09:22;;;;;;;10.05;7.60;;;0.80;99.90;;;;;;5054397;28;20106;-56
2023/01/22 06:11:49;;;;;;;13.32;8.35;;;0.80;99.90;;;;;;5057657;28;20084;-57
2023/01/22 06:14:16;;;;;;;13.02;8.18;;;0.80;99.90;;;;;;5072176;28;20131;-55
2023/01/22 06:16:43;;;;;;;11.75;8.35;;;0.70;99.90;;;;;;5064080;28;20071;-55
2023/01/22 06:19:11;;;;;;;13.55;8.57;;;0.70;99.90;;;;;;5057639;28;20080;-55
2023/01/22 06:21:39;;;;;;;14.50;8.35;;;0.80;99.90;;;;;;5061961;28;20520;-48
2023/01/22 06:24:06;;;;;;;12.88;8.38;;;0.80;99.90;;;;;;5067574;28;20561;-48
2023/01/22 06:26:33;;;;;;;12.73;7.93;;;0.70;99.90;;;;;;5073272;28;20051;-57
2023/01/22 06:29:00;;;;;;;13.60;9.05;;;0.70;99.90;;;;;;5062801;28;20132;-57
2023/01/22 06:31:27;;;;;;;14.10;7.65;;;0.80;99.90;;;;;;5072009;28;20083;-56
2023/01/22 06:33:54;;;;;;;12.13;8.15;;;0.70;99.90;;;;;;5067676;28;20542;-55
2023/01/22 06:36:21;;;;;;;11.90;8.35;;;0.80;99.90;;;;;;5069118;28;20127;-55
2023/01/22 06:38:49;;;;;;;14.13;8.13;;;0.70;99.90;;;;;;5072514;28;20052;-54
2023/01/22 06:41:16;;;;;;;13.02;8.60;;;0.70;99.90;;;;;;5060492;28;20103;-53
2023/01/22 06:43:43;;;;;;;13.70;8.30;;;0.70;99.90;;;;;;5055357;28;20489;-53
2023/01/22 06:46:09;;;;;;;16.88;8.52;;;0.70;99.90;;;;;;5064943;28;20047;-54
2023/01/22 06:48:36;;;;;;;14.40;9.10;;;0.70;99.90;;;;;;5067730;28;20459;-55
2023/01/22 06:51:03;;;;;;;12.98;8.90;;;0.70;99.90;;;;;;5081199;28;20105;-55
2023/01/22 06:53:30;;;;;;;14.50;8.98;;;0.70;99.90;;;;;;5076431;28;20076;-55
2023/01/22 06:56:00;;;;;;;14.00;9.32;;;0.70;99.90;;;;;;5069646;28;20091;-53
2023/01/22 06:58:26;;;;;;;14.45;8.90;;;0.70;99.90;;;;;;5062774;28;20123;-56
2023/01/22 07:00:53;;;;;;;13.27;9.18;;;0.70;99.90;;;;;;5063308;28;20106;-55
2023/01/22 07:03:20;;;;;;;13.18;8.70;;;0.70;99.90;;;;;;5064395;28;20485;-55
2023/01/22 07:05:54;;;;;;;12.63;8.85;;;0.70;99.90;;;;;;5052250;28;20094;-53
2023/01/22 07:08:21;;;;;;;10.93;8.23;;;0.70;99.90;;;;;;5050751;28;20496;-49
2023/01/22 07:10:48;;;;;;;14.82;9.07;;;0.70;99.90;;;;;;5057196;28;20048;-55
2023/01/22 07:13:16;;;;;;;13.30;8.95;;;0.70;99.90;;;;;;5061876;28;20085;-56
2023/01/22 07:15:43;;;;;;;14.73;8.38;;;0.70;99.90;;;;;;5056728;28;20087;-52
2023/01/22 07:18:10;;;;;;;17.70;9.18;;;0.70;99.90;;;;;;5057253;28;20057;-53
2023/01/22 07:20:37;;;;;;;18.40;8.88;;;0.70;99.90;;;;;;5058895;28;20052;-54
2023/01/22 07:23:04;;;;;;;13.27;8.45;;;0.70;99.90;;;;;;5052007;28;20106;-53
2023/01/22 07:25:30;;;;;;;10.88;8.38;;;0.70;99.90;;;;;;5053152;28;20141;-54
2023/01/22 07:27:59;;;;;;;15.15;9.48;;;0.70;99.90;;;;;;5054001;28;20132;-56
2023/01/22 07:30:27;;;;;;;14.63;9.30;;;0.70;99.90;;;;;;5066098;28;20060;-53
2023/01/22 07:32:54;;;;;;;13.00;9.48;;;0.60;99.90;;;;;;5053166;28;20138;-57
2023/01/22 07:35:21;;;;;;;13.13;8.73;;;0.70;99.90;;;;;;5067388;28;20337;-56
2023/01/22 07:37:51;;;;;;;14.75;9.23;;;0.70;99.90;;;;;;5054417;28;20048;-54
2023/01/22 07:40:18;;;;;;;12.85;8.80;;;0.70;99.90;;;;;;5051844;28;20110;-58
2023/01/22 07:42:45;;;;;;;13.70;9.23;;;0.70;99.90;;;;;;5058785;28;20087;-57
2023/01/22 07:45:12;;;;;;;14.93;9.90;;;0.70;99.90;;;;;;5063407;28;20459;-54
2023/01/22 07:47:40;;;;;;;14.75;9.65;;;0.70;99.90;;;;;;5071002;28;20053;-51
2023/01/22 07:50:08;;;;;;;21.48;10.30;;;0.70;99.90;;;;;;5056427;28;20516;-56
2023/01/22 07:52:35;;;;;;;17.27;9.80;;;0.70;99.90;;;;;;5052635;28;20049;-50
2023/01/22 07:55:02;;;;;;;15.93;10.50;;;0.70;99.90;;;;;;5057829;28;20056;-52
2023/01/22 07:57:28;;;;;;;15.65;9.15;;;0.70;99.90;;;;;;5051144;28;20079;-56
2023/01/22 07:59:55;;;;;;;15.38;9.02;;;0.70;99.90;;;;;;5051855;28;20194;-56
2023/01/22 08:02:22;;;;;;;12.10;9.20;;;0.70;99.90;;;;;;5051507;28;20128;-54
2023/01/22 08:04:50;;;;;;;13.82;9.48;;;0.60;99.90;;;;;;5054871;28;20505;-57
2023/01/22 08:07:18;;;;;;;15.30;8.95;;;0.70;99.90;;;;;;5068704;28;20048;-54
2023/01/22 08:09:44;;;;;;;11.57;9.13;;;0.60;99.90;;;;;;5055878;28;20106;-56
2023/01/22 08:12:11;;;;;;;16.60;9.25;;;0.60;99.90;;;;;;5061729;28;20049;-57
2023/01/22 08:14:38;;;;;;;12.90;9.13;;;0.70;99.90;;;;;;5055117;28;20092;-54
2023/01/22 08:17:05;;;;;;;14.65;10.10;;;0.60;99.90;;;;;;5054553;28;20114;-54
2023/01/22 08:19:32;;;;;;;18.20;9.95;;;0.60;99.90;;;;;;5062578;28;20081;-57
2023/01/22 08:22:00;;;;;;;14.27;9.60;;;0.60;99.90;;;;;;5062341;28;20106;-56
2023/01/22 08:24:27;;;;;;;14.70;9.57;;;0.60;99.90;;;;;;5060619;28;20078;-50
2023/01/22 08:26:55;;;;;;;13.93;9.73;;;0.70;99.90;;;;;;5065207;28;20090;-53
2023/01/22 08:29:22;;;;;;;16.58;9.32;;;0.60;99.90;;;;;;5065307;28;20063;-58
2023/01/22 08:31:49;;;;;;;13.10;9.15;;;0.70;99.90;;;;;;5076063;28;20445;-54
2023/01/22 08:34:15;;;;;;;14.88;9.52;;;0.60;99.90;;;;;;5062689;28;20127;-58
2023/01/22 08:36:42;;;;;;;13.43;10.00;;;0.70;99.90;;;;;;5078242;28;20471;-54
2023/01/22 08:39:12;;;;;;;16.52;10.07;;;0.70;99.90;;;;;;5064626;28;20129;-54
2023/01/22 08:41:39;;;;;;;14.40;10.02;;;0.70;99.90;;;;;;5064765;28;20638;-54
2023/01/22 08:44:05;;;;;;;14.90;10.07;;;0.70;99.90;;;;;;5093932;28;20479;-54
2023/01/22 08:46:34;;;;;;;18.80;9.82;;;0.70;99.90;;;;;;5053766;28;20084;-50
2023/01/22 08:49:02;;;;;;;15.52;10.35;;;0.70;99.90;;;;;;5059301;28;20108;-56
2023/01/22 08:51:29;;;;;;;15.30;10.52;;;0.70;99.90;;;;;;5078543;28;20141;-55
2023/01/22 08:53:56;;;;;;;14.68;9.73;;;0.70;99.90;;;;;;5059517;28;20049;-57
2023/01/22 08:56:24;;;;;;;13.52;9.32;;;0.70;99.90;;;;;;5053862;28;20052;-57
2023/01/22 08:58:51;;;;;;;13.15;9.75;;;0.70;99.90;;;;;;5057371;28;20057;-55
2023/01/22 09:01:18;;;;;;;13.23;9.68;;;0.80;99.90;;;;;;5067474;28;20075;-54
2023/01/22 09:03:45;;;;;;;17.60;9.35;;;0.80;99.90;;;;;;5064215;28;20095;-54
2023/01/22 09:06:12;;;;;;;13.40;9.63;;;0.70;99.90;;;;;;5057728;28;20447;-55
2023/01/22 09:08:39;;;;;;;14.60;9.38;;;0.80;99.90;;;;;;5058399;28;20103;-55
2023/01/22 09:11:06;;;;;;;17.10;9.63;;;0.80;99.90;;;;;;5078008;28;20134;-57
2023/01/22 09:13:34;;;;;;;14.65;9.85;;;0.80;99.90;;;;;;5060147;28;20087;-57
2023/01/22 09:16:01;;;;;;;16.65;9.05;;;0.80;99.90;;;;;;5060380;28;20057;-56
2023/01/22 09:18:27;;;;;;;13.18;8.85;;;0.80;99.90;;;;;;5055086;28;20053;-57
2023/01/22 09:20:54;;;;;;;13.80;9.35;;;0.80;99.90;;;;;;5058675;28;20079;-56
2023/01/22 09:23:22;;;;;;;14.27;9.27;;;0.80;99.90;;;;;;5055375;28;20080;-57
2023/01/22 09:25:48;;;;;;;12.38;9.23;;;0.80;99.90;;;;;;5062924;28;20063;-57
2023/01/22 09:28:15;;;;;;;12.80;9.23;;;0.90;99.90;;;;;;5066481;28;20079;-50
2023/01/22 09:30:43;;;;;;;17.85;9.45;;;0.90;99.90;;;;;;5070416;28;20052;-56
2023/01/22 09:33:10;;;;;;;13.18;8.93;;;0.90;99.90;;;;;;5059024;28;20141;-48
2023/01/22 09:35:37;;;;;;;15.98;9.50;;;0.90;99.90;;;;;;5062628;28;20137;-56
2023/01/22 09:38:04;;;;;;;16.27;10.00;;;0.90;99.90;;;;;;5066250;28;20114;-55
2023/01/22 09:40:32;;;;;;;16.20;9.30;;;1.00;99.90;;;;;;5071118;28;20052;-52
2023/01/22 09:43:03;;;;;;;12.85;9.35;;;1.00;99.90;;;;;;5054447;28;20146;-54
2023/01/22 09:45:30;;;;;;;15.03;10.00;;;1.00;99.90;;;;;;5060381;28;20098;-52
2023/01/22 09:47:59;;;;;;;16.40;10.65;;;1.00;99.90;;;;;;5054961;28;20392;-53
2023/01/22 09:50:27;;;;;;;17.92;10.30;;;1.00;99.90;;;;;;5070993;28;20083;-56
2023/01/22 09:52:54;;;;;;;19.23;9.80;;;1.10;99.90;;;;;;5070694;28;20071;-57
2023/01/22 09:55:23;;;;;;;15.85;9.50;;;1.10;99.90;;;;;;5056572;28;20052;-53
2023/01/22 09:57:50;;;;;;;15.90;9.15;;;1.10;99.90;;;;;;5053878;28;20156;-55
2023/01/22 10:00:18;;;;;;;12.18;8.75;;;1.10;99.90;;;;;;5064372;28;20076;-56
2023/01/22 10:02:46;;;;;;;12.88;9.23;;;1.10;99.90;;;;;;5059933;28;20608;-57
2023/01/22 10:05:19;;;;;;;14.93;9.13;;;1.10;99.90;;;;;;5053161;28;20132;-53
2023/01/22 10:07:49;;;;;;;14.48;8.90;;;1.20;99.90;;;;;;5060683;28;20129;-56
2023/01/22 10:10:19;;;;;;;14.27;9.63;;;1.20;99.90;;;;;;5059424;28;20080;-56
2023/01/22 10:12:47;;;;;;;13.25;8.77;;;1.10;99.90;;;;;;5061718;28;20126;-51
2023/01/22 10:15:14;;;;;;;12.27;9.05;;;1.20;99.90;;;;;;5064033;28;20048;-54
2023/01/22 10:17:41;;;;;;;14.70;9.30;;;1.20;99.90;;;;;;5052316;28;20061;-52
2023/01/22 10:20:11;;;;;;;14.13;9.57;;;1.20;99.90;;;;;;5069960;28;20712;-56
2023/01/22 10:22:39;;;;;;;14.05;9.95;;;1.30;99.90;;;;;;5076487;28;20052;-51
2023/01/22 10:25:09;;;;;;;17.45;9.77;;;1.30;99.90;;;;;;5084821;28;20079;-49
2023/01/22 10:27:38;;;;;;;17.88;9.88;;;1.30;99.90;;;;;;5093781;28;20087;-54
2023/01/22 10:30:08;;;;;;;13.02;9.15;;;1.30;99.90;;;;;;5084245;28;20056;-47
2023/01/22 10:32:35;;;;;;;17.10;9.65;;;1.30;99.90;;;;;;5056073;28;20451;-50
2023/01/22 10:35:04;;;;;;;14.60;9.88;;;1.30;99.90;;;;;;5065899;28;20148;-54
2023/01/22 10:37:31;;;;;;;15.43;9.30;;;1.30;99.90;;;;;;5062599;28;20045;-51
2023/01/22 10:39:59;;;;;;;14.88;9.80;;;1.30;99.90;;;;;;5068320;28;20543;-50
2023/01/22 10:42:27;;;;;;;15.88;10.25;;;1.30;99.90;;;;;;5067868;28;20135;-54
2023/01/22 10:44:58;;;;;;;15.70;10.30;;;1.30;99.90;;;;;;5072636;28;20048;-54
2023/01/22 10:47:26;;;;;;;14.45;10.48;;;1.30;99.90;;;;;;5071849;28;20131;-51
2023/01/22 10:50:01;;;;;;;16.40;10.40;;;1.40;99.90;;;;;;5086441;28;20056;-51
2023/01/22 10:52:33;;;;;;;16.35;10.60;;;1.40;99.90;;;;;;5060545;28;20138;-52
2023/01/22 10:55:01;;;;;;;15.75;11.15;;;1.40;99.90;;;;;;5057125;28;20076;-51
2023/01/22 10:57:31;;;;;;;15.98;10.95;;;1.40;99.90;;;;;;5064431;28;20052;-53
2023/01/22 11:00:02;;;;;;;20.55;11.25;;;1.40;99.90;;;;;;5061800;28;20059;-55
2023/01/22 11:02:29;;;;;;;;;;;1.50;99.90;;;;;;5058257;28;20056;-56
2023/01/22 11:04:56;;;;;;;16.70;10.43;;;1.50;99.90;;;;;;5060707;28;20510;-54
2023/01/22 11:07:24;;;;;;;16.73;11.15;;;1.50;99.90;;;;;;5058345;28;20152;-50
2023/01/22 11:09:53;;;;;;;15.00;10.35;;;1.50;99.90;;;;;;5061122;28;20056;-51
2023/01/22 11:12:22;;;;;;;13.80;10.60;;;1.50;99.90;;;;;;5053728;28;20510;-50
2023/01/22 11:14:53;;;;;;;15.68;10.55;;;1.60;99.90;;;;;;5052064;28;20102;-55
2023/01/22 11:17:22;;;;;;;15.30;10.60;;;1.60;99.90;;;;;;5062997;28;20048;-53
2023/01/22 11:19:55;;;;;;;16.45;11.23;;;1.80;99.90;;;;;;5054792;28;20504;-54
2023/01/22 11:22:26;;;;;;;17.20;11.45;;;1.60;99.90;;;;;;5058171;28;20076;-52
2023/01/22 11:24:53;;;;;;;16.92;11.45;;;1.70;99.90;;;;;;5061144;28;20049;-52
2023/01/22 11:27:38;;;;;;;18.58;11.25;;;1.60;99.90;;;;;;5070196;28;20495;-54
2023/01/22 11:30:15;;;;;;;18.00;11.07;;;1.60;99.90;;;;;;5057235;28;20144;-54
2023/01/22 11:32:50;;;;;;;15.20;10.90;;;1.60;99.90;;;;;;5068671;28;20084;-54
2023/01/22 11:35:21;;;;;;;15.60;10.73;;;1.70;99.90;;;;;;5068253;28;20147;-52
2023/01/22 11:37:56;;;;;;;17.02;10.45;;;1.70;99.90;;;;;;5052763;28;20136;-50
2023/01/22 11:40:26;;;;;;;14.52;10.80;;;1.70;99.90;;;;;;5052852;28;20409;-51
2023/01/22 11:43:09;;;;;;;16.52;11.73;;;1.70;99.90;;;;;;5056599;28;20075;-49
2023/01/22 11:45:58;;;;;;;15.93;10.50;;;1.80;99.90;;;;;;5052119;28;20049;-50
2023/01/22 11:48:40;;;;;;;17.15;11.68;;;1.80;99.90;;;;;;5054054;28;20045;-59
2023/01/22 11:51:15;;;;;;;17.15;10.45;;;1.80;99.90;;;;;;5064075;28;20076;-50
2023/01/22 11:53:50;;;;;;;14.27;10.50;;;1.80;99.90;;;;;;5053901;28;20128;-53
2023/01/22 11:56:29;;;;;;;17.52;12.07;;;1.90;99.90;;;;;;5052105;28;20080;-54
2023/01/22 11:59:08;;;;;;;17.70;12.30;;;1.90;99.90;;;;;;5064915;28;20092;-53
2023/01/22 12:01:45;;;;;;;18.30;11.82;;;1.90;99.90;;;;;;5072558;28;20059;-49
2023/01/22 12:04:35;;;;;;;19.42;12.57;;;2.00;99.90;;;;;;5070104;28;20076;-54
2023/01/22 12:07:21;;;;;;;18.45;12.13;;;2.00;99.90;;;;;;5071732;28;20084;-54
2023/01/22 12:09:51;;;;;;;16.48;10.98;;;2.00;99.90;;;;;;5054417;28;20049;-51
2023/01/22 12:12:29;;;;;;;17.00;11.73;;;2.00;99.90;;;;;;5052650;28;20154;-54
2023/01/22 12:15:06;;;;;;;16.38;11.23;;;2.00;99.90;;;;;;5054078;28;20528;-51
2023/01/22 12:17:41;;;;;;;20.55;12.02;;;2.00;99.90;;;;;;5053325;28;20088;-48
2023/01/22 12:20:43;;;;;;;19.60;11.65;;;2.00;99.90;;;;;;5069954;28;20127;-53
2023/01/22 12:23:13;;;;;;;16.17;11.73;;;2.10;99.90;;;;;;5060785;28;20451;-49
2023/01/22 12:25:43;;;;;;;18.25;11.82;;;2.10;99.90;;;;;;5073013;28;20138;-53
2023/01/22 12:28:14;;;;;;;14.13;11.13;;;2.10;99.90;;;;;;5072494;28;20111;-52
2023/01/22 12:30:49;;;;;;;14.63;11.02;;;2.10;99.90;;;;;;5064488;28;20088;-54
2023/01/22 12:33:17;;;;;;;16.23;10.93;;;2.20;99.90;;;;;;5071032;28;20099;-53
2023/01/22 12:35:44;;;;;;;15.02;10.55;;;2.20;99.90;;;;;;5070404;28;20143;-50
2023/01/22 12:38:14;;;;;;;17.73;10.98;;;2.20;99.90;;;;;;5064236;28;20044;-46
2023/01/22 12:40:56;;;;;;;18.58;11.90;;;2.20;99.90;;;;;;5070967;28;20131;-50
2023/01/22 12:43:27;;;;;;;16.13;10.80;;;2.30;99.90;;;;;;5070662;28;20106;-54
2023/01/22 12:46:01;;;;;;;21.48;11.38;;;2.30;99.90;;;;;;5071071;28;20044;-53
2023/01/22 12:48:31;;;;;;;16.33;11.27;;;2.30;99.90;;;;;;5068914;28;20051;-55
2023/01/22 12:50:58;;;;;;;20.23;11.05;;;2.40;99.90;;;;;;5071205;28;20095;-56
2023/01/22 12:53:26;;;;;;;18.27;11.02;;;2.50;99.90;;;;;;5072080;28;20119;-56